MGL7308 RKSI-ZMCK
Flight info
| Callsign | MGL7308 |
|---|---|
| Flight time | 3h 18m |
| Altitude | 32000 |
| Route | NOPIK2A NOPIK Y697 AGAVO/K0783S0660 A591 IKEKA W4 FZ/K0878S0980 W4 HCH W200 DOVIV W55 PAMRU W34 LADIX B339 POLHO Y345 MENUG MENUG2W |
| Aircraft | B38M/M-SDE1FGHILORVWXY/HB1 |
Departure
| Time | 2026-04-22 12:01 |
|---|---|
| Airport | Incheon International Airport (RKSI) |
Arrival
| Time | 2026-04-22 15:19 |
|---|---|
| Airport | Ulaanbaatar Chinggis Khaan International Airport (ZMCK) |
| Time | Latitude | Longitude | Altitude | Speed | Heading |
|---|---|---|---|---|---|
| 2026-04-22 11:33 | 37.45374 | 126.45216 | 35 ft | 0 kts | 244° |
| 2026-04-22 11:48 | 37.45375 | 126.45218 | 35 ft | 2 kts | 244° |
| 2026-04-22 11:49 | 37.45384 | 126.45248 | 35 ft | 4 kts | 255° |
| 2026-04-22 11:49 | 37.45388 | 126.45281 | 35 ft | 4 kts | 270° |
| 2026-04-22 11:49 | 37.45384 | 126.45314 | 35 ft | 4 kts | 292° |
| 2026-04-22 11:49 | 37.45370 | 126.45339 | 35 ft | 4 kts | 332° |
| 2026-04-22 11:50 | 37.45363 | 126.45343 | 35 ft | 0 kts | 343° |
| 2026-04-22 11:52 | 37.45365 | 126.45342 | 35 ft | 1 kts | 342° |
| 2026-04-22 11:52 | 37.45381 | 126.45336 | 35 ft | 4 kts | 343° |
| 2026-04-22 11:52 | 37.45421 | 126.45321 | 35 ft | 9 kts | 343° |
| 2026-04-22 11:53 | 37.45495 | 126.45280 | 35 ft | 15 kts | 322° |
| 2026-04-22 11:53 | 37.45543 | 126.45144 | 35 ft | 21 kts | 266° |
| 2026-04-22 11:53 | 37.45479 | 126.44990 | 35 ft | 19 kts | 234° |
| 2026-04-22 11:53 | 37.45405 | 126.44859 | 35 ft | 19 kts | 235° |
| 2026-04-22 11:54 | 37.45334 | 126.44732 | 35 ft | 16 kts | 234° |
| 2026-04-22 11:54 | 37.45264 | 126.44609 | 35 ft | 18 kts | 234° |
| 2026-04-22 11:54 | 37.45189 | 126.44476 | 35 ft | 19 kts | 234° |
| 2026-04-22 11:54 | 37.45108 | 126.44332 | 35 ft | 21 kts | 234° |
| 2026-04-22 11:55 | 37.45027 | 126.44189 | 35 ft | 19 kts | 234° |
| 2026-04-22 11:55 | 37.44948 | 126.44079 | 35 ft | 14 kts | 192° |
| 2026-04-22 11:55 | 37.44851 | 126.44140 | 35 ft | 19 kts | 145° |
| 2026-04-22 11:55 | 37.44746 | 126.44233 | 35 ft | 17 kts | 144° |
| 2026-04-22 11:56 | 37.44642 | 126.44327 | 35 ft | 17 kts | 144° |
| 2026-04-22 11:56 | 37.44550 | 126.44408 | 35 ft | 18 kts | 147° |
| 2026-04-22 11:56 | 37.44447 | 126.44338 | 35 ft | 17 kts | 234° |
| 2026-04-22 11:56 | 37.44415 | 126.44281 | 35 ft | 2 kts | 234° |
| 2026-04-22 11:57 | 37.44414 | 126.44280 | 35 ft | 0 kts | 234° |
| 2026-04-22 11:59 | 37.44401 | 126.44256 | 35 ft | 7 kts | 234° |
| 2026-04-22 11:59 | 37.44380 | 126.44168 | 35 ft | 14 kts | 283° |
| 2026-04-22 11:59 | 37.44441 | 126.44087 | 35 ft | 7 kts | 324° |
| 2026-04-22 12:00 | 37.44443 | 126.44085 | 35 ft | 1 kts | 324° |
| 2026-04-22 12:00 | 37.44514 | 126.44021 | 35 ft | 37 kts | 324° |
| 2026-04-22 12:00 | 37.44955 | 126.43630 | 35 ft | 115 kts | 324° |
| 2026-04-22 12:00 | 37.45789 | 126.42900 | 126 ft | 165 kts | 330° |
| 2026-04-22 12:01 | 37.46809 | 126.42065 | 664 ft | 190 kts | 329° |
| 2026-04-22 12:01 | 37.47932 | 126.40975 | 1216 ft | 211 kts | 317° |
| 2026-04-22 12:01 | 37.48924 | 126.39564 | 2021 ft | 212 kts | 315° |
| 2026-04-22 12:01 | 37.49921 | 126.38002 | 2334 ft | 240 kts | 310° |
| 2026-04-22 12:02 | 37.50682 | 126.36210 | 3395 ft | 229 kts | 292° |
| 2026-04-22 12:02 | 37.50892 | 126.34112 | 4117 ft | 247 kts | 276° |
| 2026-04-22 12:02 | 37.50859 | 126.31906 | 4951 ft | 257 kts | 275° |
| 2026-04-22 12:02 | 37.50828 | 126.29646 | 5710 ft | 266 kts | 275° |
| 2026-04-22 12:03 | 37.50811 | 126.27271 | 6517 ft | 271 kts | 275° |
| 2026-04-22 12:03 | 37.50823 | 126.24899 | 7387 ft | 273 kts | 276° |
| 2026-04-22 12:03 | 37.50848 | 126.22483 | 8204 ft | 278 kts | 276° |
| 2026-04-22 12:03 | 37.50887 | 126.20046 | 9103 ft | 279 kts | 277° |
| 2026-04-22 12:04 | 37.50826 | 126.17571 | 9848 ft | 287 kts | 264° |
| 2026-04-22 12:04 | 37.50136 | 126.15105 | 10234 ft | 305 kts | 243° |
| 2026-04-22 12:04 | 37.48891 | 126.12940 | 10976 ft | 310 kts | 235° |
| 2026-04-22 12:04 | 37.47527 | 126.10828 | 11707 ft | 315 kts | 236° |
| 2026-04-22 12:05 | 37.46115 | 126.08590 | 12033 ft | 335 kts | 234° |
| 2026-04-22 12:05 | 37.44694 | 126.06191 | 12295 ft | 354 kts | 236° |
| 2026-04-22 12:05 | 37.43257 | 126.03624 | 12673 ft | 367 kts | 237° |
| 2026-04-22 12:05 | 37.41792 | 126.00919 | 13093 ft | 379 kts | 239° |
| 2026-04-22 12:06 | 37.40746 | 125.97897 | 13801 ft | 376 kts | 259° |
| 2026-04-22 12:06 | 37.40550 | 125.94610 | 14378 ft | 377 kts | 274° |
| 2026-04-22 12:06 | 37.40596 | 125.91303 | 15044 ft | 378 kts | 271° |
| 2026-04-22 12:06 | 37.40589 | 125.88014 | 15724 ft | 378 kts | 270° |
| 2026-04-22 12:07 | 37.40567 | 125.84708 | 16387 ft | 379 kts | 270° |
| 2026-04-22 12:07 | 37.40535 | 125.81379 | 17029 ft | 379 kts | 270° |
| 2026-04-22 12:07 | 37.40497 | 125.78049 | 17656 ft | 380 kts | 270° |
| 2026-04-22 12:07 | 37.40457 | 125.74764 | 18267 ft | 381 kts | 270° |
| 2026-04-22 12:08 | 37.40415 | 125.71406 | 18749 ft | 383 kts | 270° |
| 2026-04-22 12:08 | 37.40371 | 125.68040 | 19267 ft | 384 kts | 269° |
| 2026-04-22 12:08 | 37.40327 | 125.64700 | 19771 ft | 385 kts | 269° |
| 2026-04-22 12:08 | 37.40281 | 125.61310 | 20285 ft | 386 kts | 269° |
| 2026-04-22 12:09 | 37.40235 | 125.57980 | 20785 ft | 387 kts | 269° |
| 2026-04-22 12:09 | 37.40187 | 125.54580 | 21269 ft | 388 kts | 269° |
| 2026-04-22 12:09 | 37.40138 | 125.51184 | 21744 ft | 389 kts | 269° |
| 2026-04-22 12:09 | 37.40088 | 125.47771 | 22209 ft | 391 kts | 268° |
| 2026-04-22 12:10 | 37.40036 | 125.44331 | 22658 ft | 392 kts | 268° |
| 2026-04-22 12:10 | 37.39984 | 125.40927 | 23099 ft | 393 kts | 268° |
| 2026-04-22 12:10 | 37.39930 | 125.37455 | 23546 ft | 395 kts | 268° |
| 2026-04-22 12:10 | 37.39876 | 125.34030 | 23901 ft | 397 kts | 268° |
| 2026-04-22 12:11 | 37.39820 | 125.30552 | 24263 ft | 398 kts | 268° |
| 2026-04-22 12:11 | 37.39762 | 125.27050 | 24617 ft | 399 kts | 268° |
| 2026-04-22 12:11 | 37.39704 | 125.23552 | 24976 ft | 401 kts | 268° |
| 2026-04-22 12:11 | 37.39646 | 125.20077 | 25327 ft | 402 kts | 268° |
| 2026-04-22 12:12 | 37.39585 | 125.16539 | 25669 ft | 403 kts | 268° |
| 2026-04-22 12:12 | 37.39524 | 125.13034 | 25997 ft | 405 kts | 268° |
| 2026-04-22 12:12 | 37.39461 | 125.09475 | 26323 ft | 406 kts | 268° |
| 2026-04-22 12:12 | 37.39398 | 125.05918 | 26652 ft | 407 kts | 268° |
| 2026-04-22 12:13 | 37.39332 | 125.02355 | 27073 ft | 405 kts | 267° |
| 2026-04-22 12:13 | 37.39267 | 124.98843 | 27460 ft | 405 kts | 267° |
| 2026-04-22 12:13 | 37.39200 | 124.95296 | 27913 ft | 403 kts | 267° |
| 2026-04-22 12:13 | 37.39134 | 124.91804 | 28388 ft | 401 kts | 267° |
| 2026-04-22 12:14 | 37.39066 | 124.88304 | 28868 ft | 398 kts | 267° |
| 2026-04-22 12:14 | 37.38997 | 124.84814 | 29344 ft | 396 kts | 267° |
| 2026-04-22 12:14 | 37.38927 | 124.81356 | 29838 ft | 394 kts | 267° |
| 2026-04-22 12:14 | 37.38857 | 124.77943 | 30268 ft | 391 kts | 267° |
| 2026-04-22 12:15 | 37.38786 | 124.74526 | 30651 ft | 389 kts | 266° |
| 2026-04-22 12:15 | 37.38714 | 124.71117 | 31046 ft | 387 kts | 266° |
| 2026-04-22 12:15 | 37.38642 | 124.67764 | 31434 ft | 385 kts | 266° |
| 2026-04-22 12:15 | 37.38569 | 124.64387 | 31799 ft | 383 kts | 266° |
| 2026-04-22 12:16 | 37.38495 | 124.61038 | 32011 ft | 384 kts | 266° |
| 2026-04-22 12:16 | 37.38422 | 124.57730 | 32028 ft | 381 kts | 266° |
| 2026-04-22 12:16 | 37.38272 | 124.51067 | 32032 ft | 380 kts | 266° |
| 2026-04-22 12:17 | 37.38116 | 124.44454 | 32016 ft | 380 kts | 265° |
| 2026-04-22 12:17 | 37.36819 | 124.39253 | 32030 ft | 380 kts | 239° |
| 2026-04-22 12:18 | 37.33963 | 124.33643 | 32016 ft | 382 kts | 241° |
| 2026-04-22 12:18 | 37.31117 | 124.27954 | 32024 ft | 383 kts | 241° |
| 2026-04-22 12:19 | 37.28279 | 124.22301 | 32031 ft | 383 kts | 241° |
| 2026-04-22 12:19 | 37.25438 | 124.16653 | 32018 ft | 384 kts | 240° |
| 2026-04-22 12:20 | 37.22530 | 124.11010 | 32029 ft | 386 kts | 239° |
| 2026-04-22 12:20 | 37.19566 | 124.05435 | 32034 ft | 386 kts | 239° |
| 2026-04-22 12:21 | 37.16580 | 123.99816 | 32034 ft | 385 kts | 240° |
| 2026-04-22 12:21 | 37.13678 | 123.94188 | 32028 ft | 386 kts | 240° |
| 2026-04-22 12:22 | 37.10755 | 123.88519 | 32032 ft | 386 kts | 240° |
| 2026-04-22 12:22 | 37.07852 | 123.82897 | 32033 ft | 386 kts | 240° |
| 2026-04-22 12:23 | 37.04937 | 123.77262 | 32036 ft | 386 kts | 240° |
| 2026-04-22 12:23 | 37.02002 | 123.71598 | 32008 ft | 386 kts | 240° |
| 2026-04-22 12:24 | 36.99082 | 123.65971 | 32044 ft | 389 kts | 240° |
| 2026-04-22 12:24 | 36.96145 | 123.60322 | 32040 ft | 388 kts | 240° |
| 2026-04-22 12:25 | 36.93190 | 123.54648 | 32041 ft | 388 kts | 239° |
| 2026-04-22 12:25 | 36.90254 | 123.49018 | 32040 ft | 388 kts | 239° |
| 2026-04-22 12:26 | 36.87292 | 123.43349 | 32043 ft | 390 kts | 239° |
| 2026-04-22 12:26 | 36.84438 | 123.37639 | 31998 ft | 387 kts | 249° |
| 2026-04-22 12:27 | 36.83782 | 123.34412 | 31975 ft | 385 kts | 265° |
| 2026-04-22 12:27 | 36.84033 | 123.31063 | 32055 ft | 393 kts | 281° |
| 2026-04-22 12:27 | 36.85774 | 123.24495 | 32020 ft | 396 kts | 282° |
| 2026-04-22 12:28 | 36.87374 | 123.17931 | 32038 ft | 397 kts | 282° |
| 2026-04-22 12:28 | 36.88971 | 123.11311 | 32043 ft | 398 kts | 281° |
| 2026-04-22 12:29 | 36.90559 | 123.04709 | 32041 ft | 398 kts | 281° |
| 2026-04-22 12:29 | 36.92137 | 122.98125 | 32040 ft | 397 kts | 281° |
| 2026-04-22 12:30 | 36.94511 | 122.88190 | 32056 ft | 398 kts | 281° |
| 2026-04-22 12:31 | 36.96093 | 122.81549 | 32046 ft | 398 kts | 281° |
| 2026-04-22 12:31 | 36.97664 | 122.74934 | 32042 ft | 398 kts | 281° |
| 2026-04-22 12:32 | 36.99241 | 122.68277 | 32043 ft | 398 kts | 281° |
| 2026-04-22 12:32 | 37.01588 | 122.58331 | 32050 ft | 398 kts | 281° |
| 2026-04-22 12:33 | 37.03156 | 122.51663 | 32052 ft | 398 kts | 281° |
| 2026-04-22 12:33 | 37.04708 | 122.45045 | 32192 ft | 399 kts | 281° |
| 2026-04-22 12:34 | 37.05488 | 122.41714 | 32586 ft | 397 kts | 281° |
| 2026-04-22 12:34 | 37.06256 | 122.38429 | 32889 ft | 396 kts | 281° |
| 2026-04-22 12:34 | 37.07057 | 122.35097 | 33233 ft | 397 kts | 284° |
| 2026-04-22 12:34 | 37.08394 | 122.32039 | 33596 ft | 411 kts | 301° |
| 2026-04-22 12:35 | 37.10522 | 122.29531 | 33962 ft | 429 kts | 315° |
| 2026-04-22 12:35 | 37.13002 | 122.27474 | 34160 ft | 430 kts | 314° |
| 2026-04-22 12:35 | 37.15426 | 122.25271 | 34357 ft | 429 kts | 314° |
| 2026-04-22 12:35 | 37.17634 | 122.22848 | 34633 ft | 410 kts | 300° |
| 2026-04-22 12:36 | 37.19074 | 122.19894 | 35010 ft | 387 kts | 284° |
| 2026-04-22 12:36 | 37.19882 | 122.16740 | 35239 ft | 383 kts | 282° |
| 2026-04-22 12:36 | 37.20728 | 122.13582 | 35412 ft | 384 kts | 282° |
| 2026-04-22 12:36 | 37.21568 | 122.10404 | 35677 ft | 382 kts | 282° |
| 2026-04-22 12:37 | 37.22395 | 122.07237 | 35960 ft | 380 kts | 282° |
| 2026-04-22 12:37 | 37.23214 | 122.04086 | 36272 ft | 377 kts | 282° |
| 2026-04-22 12:37 | 37.24015 | 122.00992 | 36580 ft | 374 kts | 282° |
| 2026-04-22 12:37 | 37.24818 | 121.97886 | 36817 ft | 372 kts | 282° |
| 2026-04-22 12:38 | 37.25617 | 121.94789 | 37035 ft | 371 kts | 282° |
| 2026-04-22 12:38 | 37.26401 | 121.91749 | 37236 ft | 370 kts | 282° |
| 2026-04-22 12:38 | 37.27192 | 121.88675 | 37440 ft | 368 kts | 282° |
| 2026-04-22 12:38 | 37.27980 | 121.85613 | 37634 ft | 367 kts | 282° |
| 2026-04-22 12:39 | 37.28763 | 121.82564 | 37825 ft | 366 kts | 282° |
| 2026-04-22 12:39 | 37.30312 | 121.76521 | 38098 ft | 364 kts | 282° |
| 2026-04-22 12:40 | 37.31854 | 121.70490 | 38041 ft | 360 kts | 282° |
| 2026-04-22 12:40 | 37.33390 | 121.64472 | 38051 ft | 362 kts | 282° |
| 2026-04-22 12:41 | 37.34917 | 121.58477 | 38067 ft | 361 kts | 282° |
| 2026-04-22 12:41 | 37.36441 | 121.52473 | 38054 ft | 361 kts | 282° |
| 2026-04-22 12:42 | 37.37970 | 121.46440 | 38066 ft | 360 kts | 282° |
| 2026-04-22 12:42 | 37.39481 | 121.40460 | 38068 ft | 361 kts | 281° |
| 2026-04-22 12:43 | 37.41004 | 121.34420 | 38059 ft | 360 kts | 281° |
| 2026-04-22 12:43 | 37.42508 | 121.28440 | 38064 ft | 360 kts | 281° |
| 2026-04-22 12:44 | 37.44019 | 121.22420 | 38073 ft | 360 kts | 281° |
| 2026-04-22 12:44 | 37.45638 | 121.16433 | 38056 ft | 363 kts | 284° |
| 2026-04-22 12:45 | 37.47504 | 121.10535 | 38061 ft | 364 kts | 285° |
| 2026-04-22 12:45 | 37.49378 | 121.04645 | 38065 ft | 363 kts | 285° |
| 2026-04-22 12:46 | 37.51255 | 120.98739 | 38062 ft | 363 kts | 285° |
| 2026-04-22 12:46 | 37.53139 | 120.92797 | 38065 ft | 363 kts | 284° |
| 2026-04-22 12:47 | 37.55004 | 120.86905 | 38057 ft | 363 kts | 284° |
| 2026-04-22 12:47 | 37.56865 | 120.81013 | 38057 ft | 363 kts | 284° |
| 2026-04-22 12:48 | 37.58735 | 120.75121 | 38060 ft | 363 kts | 285° |
| 2026-04-22 12:48 | 37.60674 | 120.69211 | 38057 ft | 363 kts | 285° |
| 2026-04-22 12:49 | 37.62602 | 120.63341 | 38055 ft | 364 kts | 285° |
| 2026-04-22 12:49 | 37.64542 | 120.57426 | 38058 ft | 363 kts | 285° |
| 2026-04-22 12:50 | 37.66808 | 120.51697 | 38102 ft | 369 kts | 291° |
| 2026-04-22 12:50 | 37.69366 | 120.46066 | 38042 ft | 370 kts | 291° |
| 2026-04-22 12:51 | 37.71940 | 120.40415 | 38057 ft | 371 kts | 291° |
| 2026-04-22 12:51 | 37.74499 | 120.34792 | 38054 ft | 370 kts | 291° |
| 2026-04-22 12:52 | 37.77067 | 120.29137 | 38060 ft | 370 kts | 291° |
| 2026-04-22 12:52 | 37.79624 | 120.23499 | 38059 ft | 370 kts | 291° |
| 2026-04-22 12:53 | 37.82196 | 120.17820 | 38058 ft | 370 kts | 291° |
| 2026-04-22 12:53 | 37.84738 | 120.12194 | 38059 ft | 370 kts | 291° |
| 2026-04-22 12:54 | 37.87296 | 120.06524 | 38059 ft | 372 kts | 291° |
| 2026-04-22 12:54 | 37.89875 | 120.00798 | 38067 ft | 373 kts | 291° |
| 2026-04-22 12:55 | 37.91999 | 119.96073 | 38166 ft | 372 kts | 291° |
| 2026-04-22 12:55 | 37.94990 | 119.89408 | 38159 ft | 372 kts | 291° |
| 2026-04-22 12:56 | 37.97544 | 119.83707 | 38157 ft | 372 kts | 291° |
| 2026-04-22 12:56 | 38.00111 | 119.77967 | 38167 ft | 374 kts | 291° |
| 2026-04-22 12:57 | 38.02663 | 119.72250 | 38168 ft | 374 kts | 291° |
| 2026-04-22 12:57 | 38.05222 | 119.66508 | 38162 ft | 375 kts | 291° |
| 2026-04-22 12:58 | 38.07823 | 119.60659 | 38158 ft | 375 kts | 291° |
| 2026-04-22 12:58 | 38.10366 | 119.54934 | 38159 ft | 375 kts | 291° |
| 2026-04-22 12:59 | 38.12497 | 119.48964 | 38199 ft | 367 kts | 286° |
| 2026-04-22 12:59 | 38.14471 | 119.42938 | 38150 ft | 367 kts | 286° |
| 2026-04-22 13:00 | 38.16427 | 119.36934 | 38156 ft | 368 kts | 286° |
| 2026-04-22 13:00 | 38.18383 | 119.30918 | 38163 ft | 368 kts | 286° |
| 2026-04-22 13:01 | 38.20333 | 119.24904 | 38167 ft | 368 kts | 286° |
| 2026-04-22 13:01 | 38.22280 | 119.18889 | 38153 ft | 367 kts | 286° |
| 2026-04-22 13:02 | 38.24226 | 119.12863 | 38155 ft | 368 kts | 286° |
| 2026-04-22 13:02 | 38.25840 | 119.07858 | 38156 ft | 368 kts | 285° |
| 2026-04-22 13:03 | 38.27780 | 119.01827 | 38156 ft | 368 kts | 285° |
| 2026-04-22 13:03 | 38.29715 | 118.95799 | 38156 ft | 368 kts | 285° |
| 2026-04-22 13:04 | 38.31642 | 118.89784 | 38157 ft | 370 kts | 285° |
| 2026-04-22 13:04 | 38.33581 | 118.83720 | 38153 ft | 370 kts | 285° |
| 2026-04-22 13:05 | 38.35522 | 118.77639 | 38153 ft | 370 kts | 285° |
| 2026-04-22 13:05 | 38.37462 | 118.71567 | 38153 ft | 370 kts | 285° |
| 2026-04-22 13:06 | 38.39402 | 118.65493 | 38175 ft | 370 kts | 285° |
| 2026-04-22 13:06 | 38.41351 | 118.59378 | 38158 ft | 373 kts | 285° |
| 2026-04-22 13:07 | 38.43290 | 118.53281 | 38150 ft | 373 kts | 285° |
| 2026-04-22 13:07 | 38.45239 | 118.47142 | 38151 ft | 373 kts | 285° |
| 2026-04-22 13:08 | 38.47183 | 118.41002 | 38147 ft | 373 kts | 285° |
| 2026-04-22 13:08 | 38.49126 | 118.34849 | 38159 ft | 374 kts | 285° |
| 2026-04-22 13:09 | 38.51077 | 118.28655 | 38164 ft | 377 kts | 285° |
| 2026-04-22 13:09 | 38.53034 | 118.22431 | 38148 ft | 377 kts | 285° |
| 2026-04-22 13:10 | 38.54970 | 118.16257 | 38148 ft | 377 kts | 285° |
| 2026-04-22 13:10 | 38.56916 | 118.10038 | 38148 ft | 377 kts | 285° |
| 2026-04-22 13:11 | 38.58923 | 118.03837 | 38130 ft | 383 kts | 293° |
| 2026-04-22 13:11 | 38.60583 | 118.01091 | 38104 ft | 397 kts | 306° |
| 2026-04-22 13:11 | 38.62486 | 117.98557 | 38157 ft | 395 kts | 304° |
| 2026-04-22 13:12 | 38.66285 | 117.93408 | 38155 ft | 399 kts | 304° |
| 2026-04-22 13:12 | 38.70125 | 117.88263 | 38143 ft | 399 kts | 304° |
| 2026-04-22 13:13 | 38.73968 | 117.83120 | 38138 ft | 401 kts | 304° |
| 2026-04-22 13:13 | 38.77824 | 117.77951 | 38144 ft | 401 kts | 304° |
| 2026-04-22 13:14 | 38.81656 | 117.72806 | 38141 ft | 401 kts | 304° |
| 2026-04-22 13:14 | 38.85503 | 117.67631 | 38129 ft | 401 kts | 304° |
| 2026-04-22 13:15 | 38.89349 | 117.62450 | 38139 ft | 401 kts | 304° |
| 2026-04-22 13:15 | 38.93197 | 117.57258 | 38120 ft | 401 kts | 304° |
| 2026-04-22 13:16 | 38.97044 | 117.52057 | 38125 ft | 401 kts | 304° |
| 2026-04-22 13:16 | 39.00889 | 117.46852 | 38152 ft | 401 kts | 304° |
| 2026-04-22 13:17 | 39.04726 | 117.41648 | 38138 ft | 405 kts | 304° |
| 2026-04-22 13:17 | 39.07920 | 117.35936 | 38065 ft | 380 kts | 281° |
| 2026-04-22 13:18 | 39.08904 | 117.29336 | 38011 ft | 377 kts | 276° |
| 2026-04-22 13:18 | 39.09832 | 117.22657 | 38008 ft | 379 kts | 275° |
| 2026-04-22 13:19 | 39.10729 | 117.15975 | 38027 ft | 379 kts | 276° |
| 2026-04-22 13:19 | 39.11615 | 117.09299 | 38011 ft | 382 kts | 276° |
| 2026-04-22 13:20 | 39.12967 | 117.02674 | 37954 ft | 391 kts | 294° |
| 2026-04-22 13:20 | 39.14688 | 116.99902 | 38013 ft | 406 kts | 311° |
| 2026-04-22 13:20 | 39.17097 | 116.97859 | 37995 ft | 427 kts | 327° |
| 2026-04-22 13:20 | 39.20013 | 116.96769 | 37995 ft | 448 kts | 344° |
| 2026-04-22 13:21 | 39.23184 | 116.96614 | 38020 ft | 458 kts | 349° |
| 2026-04-22 13:21 | 39.29445 | 116.95755 | 38049 ft | 451 kts | 342° |
| 2026-04-22 13:22 | 39.35682 | 116.94562 | 38024 ft | 453 kts | 342° |
| 2026-04-22 13:22 | 39.41914 | 116.93297 | 37991 ft | 452 kts | 342° |
| 2026-04-22 13:23 | 39.48090 | 116.92029 | 37998 ft | 452 kts | 342° |
| 2026-04-22 13:23 | 39.54314 | 116.90747 | 37997 ft | 452 kts | 342° |
| 2026-04-22 13:24 | 39.60544 | 116.89462 | 38012 ft | 451 kts | 342° |
| 2026-04-22 13:24 | 39.66731 | 116.88183 | 37994 ft | 450 kts | 342° |
| 2026-04-22 13:25 | 39.72931 | 116.86899 | 38004 ft | 451 kts | 343° |
| 2026-04-22 13:25 | 39.79095 | 116.85622 | 38032 ft | 450 kts | 343° |
| 2026-04-22 13:26 | 39.85269 | 116.84388 | 37989 ft | 448 kts | 343° |
| 2026-04-22 13:26 | 39.91435 | 116.83161 | 37994 ft | 448 kts | 343° |
| 2026-04-22 13:27 | 39.97603 | 116.81932 | 37995 ft | 448 kts | 343° |
| 2026-04-22 13:27 | 40.03761 | 116.80702 | 37994 ft | 448 kts | 343° |
| 2026-04-22 13:28 | 40.09937 | 116.79467 | 37993 ft | 448 kts | 343° |
| 2026-04-22 13:28 | 40.16103 | 116.78231 | 37994 ft | 448 kts | 343° |
| 2026-04-22 13:29 | 40.22233 | 116.77001 | 38015 ft | 448 kts | 344° |
| 2026-04-22 13:29 | 40.28387 | 116.75763 | 37991 ft | 446 kts | 344° |
| 2026-04-22 13:30 | 40.34460 | 116.74272 | 37974 ft | 436 kts | 334° |
| 2026-04-22 13:30 | 40.40270 | 116.71888 | 37972 ft | 438 kts | 335° |
| 2026-04-22 13:31 | 40.46091 | 116.69540 | 37998 ft | 437 kts | 336° |
| 2026-04-22 13:31 | 40.51900 | 116.67189 | 37995 ft | 437 kts | 336° |
| 2026-04-22 13:32 | 40.57701 | 116.64838 | 37999 ft | 436 kts | 336° |
| 2026-04-22 13:32 | 40.63502 | 116.62483 | 38002 ft | 436 kts | 336° |
| 2026-04-22 13:33 | 40.69275 | 116.60134 | 37994 ft | 436 kts | 336° |
| 2026-04-22 13:33 | 40.75084 | 116.57766 | 38000 ft | 437 kts | 336° |
| 2026-04-22 13:34 | 40.81108 | 116.56350 | 38058 ft | 446 kts | 350° |
| 2026-04-22 13:34 | 40.84214 | 116.56069 | 37925 ft | 448 kts | 350° |
| 2026-04-22 13:34 | 40.87316 | 116.55781 | 38001 ft | 447 kts | 350° |
| 2026-04-22 13:35 | 40.93544 | 116.55202 | 38021 ft | 449 kts | 350° |
| 2026-04-22 13:35 | 40.99777 | 116.54622 | 37984 ft | 448 kts | 350° |
| 2026-04-22 13:36 | 41.05999 | 116.54041 | 37997 ft | 448 kts | 350° |
| 2026-04-22 13:36 | 41.12234 | 116.53458 | 37982 ft | 448 kts | 350° |
| 2026-04-22 13:37 | 41.18408 | 116.52879 | 38007 ft | 448 kts | 350° |
| 2026-04-22 13:37 | 41.24546 | 116.51819 | 37945 ft | 435 kts | 333° |
| 2026-04-22 13:37 | 41.27184 | 116.50013 | 38018 ft | 422 kts | 322° |
| 2026-04-22 13:38 | 41.29712 | 116.47973 | 37939 ft | 427 kts | 325° |
| 2026-04-22 13:38 | 41.37380 | 116.41949 | 37984 ft | 428 kts | 324° |
| 2026-04-22 13:39 | 41.42487 | 116.37907 | 37976 ft | 427 kts | 324° |
| 2026-04-22 13:39 | 41.47562 | 116.33881 | 37971 ft | 427 kts | 324° |
| 2026-04-22 13:40 | 41.52696 | 116.29801 | 37962 ft | 426 kts | 324° |
| 2026-04-22 13:40 | 41.57757 | 116.25773 | 37967 ft | 426 kts | 324° |
| 2026-04-22 13:41 | 41.62860 | 116.21702 | 37968 ft | 428 kts | 324° |
| 2026-04-22 13:41 | 41.67972 | 116.17617 | 37960 ft | 428 kts | 324° |
| 2026-04-22 13:42 | 41.73082 | 116.13526 | 37966 ft | 427 kts | 324° |
| 2026-04-22 13:42 | 41.78187 | 116.09431 | 37939 ft | 427 kts | 324° |
| 2026-04-22 13:43 | 41.83284 | 116.05335 | 37943 ft | 427 kts | 324° |
| 2026-04-22 13:43 | 41.88382 | 116.01230 | 37934 ft | 427 kts | 324° |
| 2026-04-22 13:44 | 41.93478 | 115.97121 | 37942 ft | 427 kts | 324° |
| 2026-04-22 13:44 | 41.98416 | 115.92822 | 37975 ft | 424 kts | 321° |
| 2026-04-22 13:45 | 42.03280 | 115.88336 | 37929 ft | 423 kts | 321° |
| 2026-04-22 13:45 | 42.08133 | 115.83844 | 37933 ft | 424 kts | 321° |
| 2026-04-22 13:46 | 42.12992 | 115.79338 | 37943 ft | 424 kts | 321° |
| 2026-04-22 13:46 | 42.17848 | 115.74826 | 37923 ft | 423 kts | 321° |
| 2026-04-22 13:47 | 42.22704 | 115.70304 | 37932 ft | 424 kts | 321° |
| 2026-04-22 13:47 | 42.27560 | 115.65776 | 37924 ft | 424 kts | 321° |
| 2026-04-22 13:48 | 42.31594 | 115.62009 | 37924 ft | 424 kts | 321° |
| 2026-04-22 13:48 | 42.36449 | 115.57467 | 37921 ft | 424 kts | 321° |
| 2026-04-22 13:49 | 42.41305 | 115.52914 | 37916 ft | 425 kts | 321° |
| 2026-04-22 13:49 | 42.46165 | 115.48350 | 37928 ft | 425 kts | 321° |
| 2026-04-22 13:50 | 42.51018 | 115.43783 | 37900 ft | 424 kts | 321° |
| 2026-04-22 13:50 | 42.55845 | 115.39233 | 37902 ft | 425 kts | 321° |
| 2026-04-22 13:51 | 42.60696 | 115.34651 | 37892 ft | 424 kts | 321° |
| 2026-04-22 13:51 | 42.65535 | 115.30071 | 37896 ft | 424 kts | 321° |
| 2026-04-22 13:52 | 42.70366 | 115.25489 | 37916 ft | 423 kts | 321° |
| 2026-04-22 13:52 | 42.75157 | 115.20938 | 37868 ft | 422 kts | 321° |
| 2026-04-22 13:53 | 42.79971 | 115.16355 | 37888 ft | 422 kts | 321° |
| 2026-04-22 13:53 | 42.84784 | 115.11764 | 37882 ft | 422 kts | 321° |
| 2026-04-22 13:54 | 42.89596 | 115.07166 | 37873 ft | 422 kts | 321° |
| 2026-04-22 13:54 | 42.94406 | 115.02560 | 37857 ft | 422 kts | 321° |
| 2026-04-22 13:55 | 42.99203 | 114.97960 | 37861 ft | 420 kts | 321° |
| 2026-04-22 13:55 | 43.03959 | 114.93388 | 37854 ft | 417 kts | 321° |
| 2026-04-22 13:56 | 43.08676 | 114.88847 | 37855 ft | 417 kts | 321° |
| 2026-04-22 13:56 | 43.13441 | 114.84324 | 37854 ft | 417 kts | 322° |
| 2026-04-22 13:57 | 43.18246 | 114.79829 | 37848 ft | 417 kts | 322° |
| 2026-04-22 13:57 | 43.23032 | 114.75348 | 37858 ft | 415 kts | 322° |
| 2026-04-22 13:58 | 43.27792 | 114.70881 | 37843 ft | 414 kts | 322° |
| 2026-04-22 13:58 | 43.32546 | 114.66413 | 37838 ft | 414 kts | 322° |
| 2026-04-22 13:59 | 43.37298 | 114.61937 | 37845 ft | 414 kts | 322° |
| 2026-04-22 13:59 | 43.42050 | 114.57454 | 37833 ft | 414 kts | 322° |
| 2026-04-22 14:00 | 43.46770 | 114.52990 | 37860 ft | 414 kts | 322° |
| 2026-04-22 14:00 | 43.51516 | 114.48495 | 37835 ft | 413 kts | 322° |
| 2026-04-22 14:01 | 43.56254 | 114.43997 | 37839 ft | 414 kts | 322° |
| 2026-04-22 14:01 | 43.60997 | 114.39487 | 37834 ft | 414 kts | 322° |
| 2026-04-22 14:02 | 43.65733 | 114.34974 | 37832 ft | 412 kts | 322° |
| 2026-04-22 14:02 | 43.70446 | 114.30474 | 37831 ft | 412 kts | 322° |
| 2026-04-22 14:03 | 43.75151 | 114.25973 | 37817 ft | 411 kts | 322° |
| 2026-04-22 14:03 | 43.79826 | 114.21493 | 37831 ft | 411 kts | 322° |
| 2026-04-22 14:04 | 43.84525 | 114.16982 | 37830 ft | 411 kts | 322° |
| 2026-04-22 14:04 | 43.89215 | 114.12468 | 37823 ft | 410 kts | 322° |
| 2026-04-22 14:05 | 43.93905 | 114.07947 | 37824 ft | 410 kts | 322° |
| 2026-04-22 14:06 | 44.00928 | 114.01159 | 37818 ft | 409 kts | 322° |
| 2026-04-22 14:06 | 44.05568 | 113.96664 | 37810 ft | 409 kts | 322° |
| 2026-04-22 14:07 | 44.10250 | 113.92119 | 37823 ft | 410 kts | 322° |
| 2026-04-22 14:07 | 44.14933 | 113.87565 | 37822 ft | 410 kts | 322° |
| 2026-04-22 14:08 | 44.19617 | 113.83000 | 37817 ft | 410 kts | 322° |
| 2026-04-22 14:08 | 44.24288 | 113.78439 | 37844 ft | 410 kts | 322° |
| 2026-04-22 14:09 | 44.28959 | 113.73869 | 37817 ft | 409 kts | 322° |
| 2026-04-22 14:09 | 44.33628 | 113.69291 | 37817 ft | 410 kts | 322° |
| 2026-04-22 14:10 | 44.38260 | 113.64742 | 37825 ft | 410 kts | 322° |
| 2026-04-22 14:10 | 44.42931 | 113.60144 | 37822 ft | 410 kts | 322° |
| 2026-04-22 14:11 | 44.47595 | 113.55544 | 37816 ft | 410 kts | 322° |
| 2026-04-22 14:11 | 44.52261 | 113.50934 | 37822 ft | 411 kts | 322° |
| 2026-04-22 14:12 | 44.56936 | 113.46305 | 37820 ft | 411 kts | 322° |
| 2026-04-22 14:12 | 44.61585 | 113.41693 | 37816 ft | 411 kts | 322° |
| 2026-04-22 14:13 | 44.66255 | 113.37052 | 37815 ft | 411 kts | 322° |
| 2026-04-22 14:13 | 44.70927 | 113.32400 | 37812 ft | 411 kts | 322° |
| 2026-04-22 14:14 | 44.75606 | 113.27733 | 37813 ft | 412 kts | 322° |
| 2026-04-22 14:14 | 44.79742 | 113.22307 | 37758 ft | 403 kts | 303° |
| 2026-04-22 14:15 | 44.83091 | 113.15944 | 37710 ft | 406 kts | 306° |
| 2026-04-22 14:15 | 44.84791 | 113.12758 | 37824 ft | 406 kts | 306° |
| 2026-04-22 14:15 | 44.86482 | 113.09560 | 37828 ft | 408 kts | 306° |
| 2026-04-22 14:16 | 44.89857 | 113.03150 | 37819 ft | 409 kts | 306° |
| 2026-04-22 14:16 | 44.93243 | 112.96698 | 37812 ft | 409 kts | 306° |
| 2026-04-22 14:17 | 44.96623 | 112.90243 | 37815 ft | 409 kts | 306° |
| 2026-04-22 14:17 | 45.00001 | 112.83775 | 37814 ft | 409 kts | 306° |
| 2026-04-22 14:18 | 45.03377 | 112.77298 | 37822 ft | 409 kts | 306° |
| 2026-04-22 14:18 | 45.06743 | 112.70826 | 37812 ft | 406 kts | 306° |
| 2026-04-22 14:19 | 45.10090 | 112.64376 | 37830 ft | 407 kts | 306° |
| 2026-04-22 14:19 | 45.13416 | 112.57952 | 37820 ft | 407 kts | 306° |
| 2026-04-22 14:20 | 45.18430 | 112.48240 | 37812 ft | 407 kts | 306° |
| 2026-04-22 14:20 | 45.21759 | 112.41775 | 37809 ft | 404 kts | 306° |
| 2026-04-22 14:21 | 45.26728 | 112.32094 | 37809 ft | 405 kts | 306° |
| 2026-04-22 14:22 | 45.31688 | 112.22400 | 37810 ft | 404 kts | 306° |
| 2026-04-22 14:23 | 45.36627 | 112.12712 | 37809 ft | 401 kts | 306° |
| 2026-04-22 14:23 | 45.39898 | 112.06279 | 37818 ft | 401 kts | 306° |
| 2026-04-22 14:24 | 45.43164 | 111.99840 | 37834 ft | 401 kts | 306° |
| 2026-04-22 14:24 | 45.46419 | 111.93409 | 37802 ft | 399 kts | 306° |
| 2026-04-22 14:25 | 45.49642 | 111.87027 | 37827 ft | 398 kts | 306° |
| 2026-04-22 14:25 | 45.52855 | 111.80651 | 37820 ft | 395 kts | 306° |
| 2026-04-22 14:26 | 45.56060 | 111.74275 | 37809 ft | 395 kts | 306° |
| 2026-04-22 14:26 | 45.59259 | 111.67897 | 37814 ft | 395 kts | 306° |
| 2026-04-22 14:27 | 45.62458 | 111.61505 | 37815 ft | 395 kts | 306° |
| 2026-04-22 14:27 | 45.65645 | 111.55123 | 37808 ft | 393 kts | 306° |
| 2026-04-22 14:28 | 45.68817 | 111.48756 | 37819 ft | 393 kts | 306° |
| 2026-04-22 14:28 | 45.71986 | 111.42382 | 37822 ft | 393 kts | 305° |
| 2026-04-22 14:29 | 45.75146 | 111.36010 | 37818 ft | 393 kts | 305° |
| 2026-04-22 14:29 | 45.78308 | 111.29621 | 37857 ft | 393 kts | 305° |
| 2026-04-22 14:30 | 45.81462 | 111.23233 | 37815 ft | 392 kts | 305° |
| 2026-04-22 14:30 | 45.84477 | 111.17112 | 37808 ft | 393 kts | 305° |
| 2026-04-22 14:31 | 45.87600 | 111.10759 | 36932 ft | 394 kts | 305° |
| 2026-04-22 14:31 | 45.89184 | 111.07532 | 37787 ft | 394 kts | 305° |
| 2026-04-22 14:31 | 45.90763 | 111.04310 | 37887 ft | 395 kts | 305° |
| 2026-04-22 14:32 | 45.93915 | 110.97869 | 37793 ft | 392 kts | 305° |
| 2026-04-22 14:32 | 45.97060 | 110.91428 | 37820 ft | 395 kts | 305° |
| 2026-04-22 14:33 | 46.00209 | 110.84962 | 37830 ft | 395 kts | 305° |
| 2026-04-22 14:33 | 46.03359 | 110.78481 | 37822 ft | 395 kts | 304° |
| 2026-04-22 14:34 | 46.06487 | 110.72030 | 37825 ft | 395 kts | 304° |
| 2026-04-22 14:34 | 46.09631 | 110.65529 | 37815 ft | 396 kts | 304° |
| 2026-04-22 14:35 | 46.12782 | 110.59002 | 37838 ft | 397 kts | 304° |
| 2026-04-22 14:35 | 46.15402 | 110.53562 | 37837 ft | 397 kts | 304° |
| 2026-04-22 14:36 | 46.18551 | 110.47009 | 37833 ft | 397 kts | 304° |
| 2026-04-22 14:36 | 46.21697 | 110.40448 | 37832 ft | 397 kts | 304° |
| 2026-04-22 14:37 | 46.24838 | 110.33881 | 37825 ft | 397 kts | 304° |
| 2026-04-22 14:37 | 46.27975 | 110.27308 | 37832 ft | 398 kts | 304° |
| 2026-04-22 14:38 | 46.31115 | 110.20712 | 37839 ft | 398 kts | 304° |
| 2026-04-22 14:38 | 46.34246 | 110.14120 | 37831 ft | 397 kts | 304° |
| 2026-04-22 14:39 | 46.37357 | 110.07555 | 37833 ft | 397 kts | 304° |
| 2026-04-22 14:39 | 46.40472 | 110.00968 | 37673 ft | 392 kts | 304° |
| 2026-04-22 14:40 | 46.43531 | 109.94481 | 36943 ft | 388 kts | 304° |
| 2026-04-22 14:40 | 46.45059 | 109.91236 | 36863 ft | 393 kts | 304° |
| 2026-04-22 14:40 | 46.46613 | 109.87932 | 36560 ft | 396 kts | 304° |
| 2026-04-22 14:40 | 46.48157 | 109.84645 | 36243 ft | 393 kts | 304° |
| 2026-04-22 14:41 | 46.49696 | 109.81365 | 35908 ft | 392 kts | 305° |
| 2026-04-22 14:41 | 46.51229 | 109.78094 | 35575 ft | 391 kts | 305° |
| 2026-04-22 14:41 | 46.52757 | 109.74829 | 35270 ft | 391 kts | 305° |
| 2026-04-22 14:41 | 46.54281 | 109.71569 | 34943 ft | 390 kts | 305° |
| 2026-04-22 14:42 | 46.55802 | 109.68312 | 34636 ft | 389 kts | 305° |
| 2026-04-22 14:42 | 46.57296 | 109.65109 | 34329 ft | 388 kts | 306° |
| 2026-04-22 14:42 | 46.58807 | 109.61865 | 34029 ft | 387 kts | 306° |
| 2026-04-22 14:42 | 46.60315 | 109.58625 | 33707 ft | 386 kts | 306° |
| 2026-04-22 14:43 | 46.61824 | 109.55376 | 33365 ft | 387 kts | 306° |
| 2026-04-22 14:43 | 46.63336 | 109.52120 | 33015 ft | 389 kts | 306° |
| 2026-04-22 14:43 | 46.64852 | 109.48850 | 32673 ft | 391 kts | 305° |
| 2026-04-22 14:43 | 46.66376 | 109.45559 | 32317 ft | 392 kts | 305° |
| 2026-04-22 14:44 | 46.67903 | 109.42260 | 31991 ft | 394 kts | 305° |
| 2026-04-22 14:44 | 46.69441 | 109.38931 | 31655 ft | 396 kts | 305° |
| 2026-04-22 14:44 | 46.70960 | 109.35639 | 31325 ft | 397 kts | 304° |
| 2026-04-22 14:44 | 46.72504 | 109.32291 | 31005 ft | 399 kts | 304° |
| 2026-04-22 14:45 | 46.74055 | 109.28921 | 30676 ft | 401 kts | 304° |
| 2026-04-22 14:45 | 46.75612 | 109.25537 | 30350 ft | 402 kts | 304° |
| 2026-04-22 14:45 | 46.77172 | 109.22140 | 30020 ft | 404 kts | 304° |
| 2026-04-22 14:45 | 46.78741 | 109.18720 | 29655 ft | 406 kts | 304° |
| 2026-04-22 14:46 | 46.80315 | 109.15284 | 29272 ft | 408 kts | 304° |
| 2026-04-22 14:46 | 46.81890 | 109.11843 | 28892 ft | 409 kts | 304° |
| 2026-04-22 14:46 | 46.83477 | 109.08374 | 28559 ft | 409 kts | 303° |
| 2026-04-22 14:46 | 46.85056 | 109.04916 | 28185 ft | 410 kts | 303° |
| 2026-04-22 14:47 | 46.86642 | 109.01442 | 27823 ft | 412 kts | 303° |
| 2026-04-22 14:47 | 46.88234 | 108.97948 | 27462 ft | 413 kts | 303° |
| 2026-04-22 14:47 | 46.89828 | 108.94446 | 27109 ft | 415 kts | 303° |
| 2026-04-22 14:47 | 46.91429 | 108.90925 | 26748 ft | 416 kts | 303° |
| 2026-04-22 14:48 | 46.93015 | 108.87432 | 26396 ft | 418 kts | 303° |
| 2026-04-22 14:48 | 46.94648 | 108.83831 | 26056 ft | 420 kts | 303° |
| 2026-04-22 14:48 | 46.96243 | 108.80310 | 25711 ft | 422 kts | 302° |
| 2026-04-22 14:48 | 46.97864 | 108.76726 | 25379 ft | 422 kts | 302° |
| 2026-04-22 14:49 | 46.99483 | 108.73141 | 25036 ft | 421 kts | 302° |
| 2026-04-22 14:49 | 47.01094 | 108.69566 | 24707 ft | 420 kts | 302° |
| 2026-04-22 14:49 | 47.02699 | 108.65991 | 24375 ft | 419 kts | 302° |
| 2026-04-22 14:49 | 47.04307 | 108.62420 | 24054 ft | 418 kts | 302° |
| 2026-04-22 14:50 | 47.05908 | 108.58869 | 23733 ft | 417 kts | 302° |
| 2026-04-22 14:50 | 47.07503 | 108.55326 | 23411 ft | 415 kts | 302° |
| 2026-04-22 14:50 | 47.09093 | 108.51795 | 23034 ft | 414 kts | 302° |
| 2026-04-22 14:50 | 47.10674 | 108.48275 | 22654 ft | 412 kts | 302° |
| 2026-04-22 14:51 | 47.12249 | 108.44765 | 22281 ft | 410 kts | 302° |
| 2026-04-22 14:51 | 47.13817 | 108.41268 | 21928 ft | 409 kts | 302° |
| 2026-04-22 14:51 | 47.15374 | 108.37789 | 21555 ft | 407 kts | 302° |
| 2026-04-22 14:51 | 47.16902 | 108.34369 | 21228 ft | 405 kts | 301° |
| 2026-04-22 14:52 | 47.18446 | 108.30911 | 20906 ft | 403 kts | 301° |
| 2026-04-22 14:52 | 47.19982 | 108.27468 | 20584 ft | 402 kts | 301° |
| 2026-04-22 14:52 | 47.21510 | 108.24036 | 20258 ft | 401 kts | 301° |
| 2026-04-22 14:52 | 47.23035 | 108.20609 | 19946 ft | 399 kts | 301° |
| 2026-04-22 14:53 | 47.24555 | 108.17188 | 19611 ft | 398 kts | 301° |
| 2026-04-22 14:53 | 47.26066 | 108.13783 | 19279 ft | 397 kts | 301° |
| 2026-04-22 14:53 | 47.27574 | 108.10380 | 18975 ft | 396 kts | 301° |
| 2026-04-22 14:53 | 47.29073 | 108.06992 | 18686 ft | 395 kts | 302° |
| 2026-04-22 14:54 | 47.30563 | 108.03622 | 18444 ft | 385 kts | 301° |
| 2026-04-22 14:54 | 47.32000 | 108.00367 | 18261 ft | 373 kts | 301° |
| 2026-04-22 14:54 | 47.33396 | 107.97203 | 18027 ft | 362 kts | 301° |
| 2026-04-22 14:54 | 47.34755 | 107.94119 | 17743 ft | 354 kts | 301° |
| 2026-04-22 14:55 | 47.36075 | 107.91118 | 17463 ft | 346 kts | 301° |
| 2026-04-22 14:55 | 47.37367 | 107.88180 | 17207 ft | 338 kts | 302° |
| 2026-04-22 14:55 | 47.38612 | 107.85344 | 16967 ft | 330 kts | 302° |
| 2026-04-22 14:55 | 47.39814 | 107.82501 | 16703 ft | 322 kts | 295° |
| 2026-04-22 14:56 | 47.40398 | 107.79353 | 16445 ft | 316 kts | 277° |
| 2026-04-22 14:56 | 47.40665 | 107.76178 | 16187 ft | 308 kts | 279° |
| 2026-04-22 14:56 | 47.40956 | 107.73088 | 15934 ft | 300 kts | 279° |
| 2026-04-22 14:56 | 47.41237 | 107.70078 | 15691 ft | 292 kts | 279° |
| 2026-04-22 14:57 | 47.41509 | 107.67142 | 15459 ft | 285 kts | 279° |
| 2026-04-22 14:57 | 47.41775 | 107.64260 | 15214 ft | 280 kts | 279° |
| 2026-04-22 14:57 | 47.42035 | 107.61433 | 14959 ft | 276 kts | 279° |
| 2026-04-22 14:57 | 47.42293 | 107.58628 | 14724 ft | 275 kts | 279° |
| 2026-04-22 14:58 | 47.42549 | 107.55835 | 14477 ft | 274 kts | 279° |
| 2026-04-22 14:58 | 47.42803 | 107.53054 | 14246 ft | 273 kts | 279° |
| 2026-04-22 14:58 | 47.43055 | 107.50280 | 14005 ft | 272 kts | 280° |
| 2026-04-22 14:58 | 47.43305 | 107.47524 | 13771 ft | 271 kts | 280° |
| 2026-04-22 14:59 | 47.43554 | 107.44771 | 13524 ft | 269 kts | 280° |
| 2026-04-22 14:59 | 47.43801 | 107.42031 | 13265 ft | 269 kts | 280° |
| 2026-04-22 14:59 | 47.44047 | 107.39296 | 13024 ft | 269 kts | 280° |
| 2026-04-22 14:59 | 47.44293 | 107.36564 | 12783 ft | 268 kts | 279° |
| 2026-04-22 15:00 | 47.44535 | 107.33863 | 12554 ft | 268 kts | 279° |
| 2026-04-22 15:00 | 47.44779 | 107.31129 | 12321 ft | 268 kts | 279° |
| 2026-04-22 15:00 | 47.45023 | 107.28395 | 12079 ft | 268 kts | 279° |
| 2026-04-22 15:00 | 47.45265 | 107.25662 | 11885 ft | 268 kts | 279° |
| 2026-04-22 15:01 | 47.45507 | 107.22934 | 11662 ft | 268 kts | 279° |
| 2026-04-22 15:01 | 47.45749 | 107.20187 | 11455 ft | 273 kts | 279° |
| 2026-04-22 15:01 | 47.46002 | 107.17322 | 11258 ft | 289 kts | 278° |
| 2026-04-22 15:01 | 47.46264 | 107.14335 | 11118 ft | 306 kts | 278° |
| 2026-04-22 15:02 | 47.46543 | 107.11145 | 10996 ft | 317 kts | 278° |
| 2026-04-22 15:02 | 47.46828 | 107.07885 | 10902 ft | 322 kts | 278° |
| 2026-04-22 15:02 | 47.47114 | 107.04589 | 10792 ft | 324 kts | 278° |
| 2026-04-22 15:02 | 47.47400 | 107.01284 | 10686 ft | 324 kts | 278° |
| 2026-04-22 15:03 | 47.47686 | 106.97980 | 10583 ft | 324 kts | 278° |
| 2026-04-22 15:03 | 47.47971 | 106.94671 | 10478 ft | 324 kts | 278° |
| 2026-04-22 15:03 | 47.48254 | 106.91366 | 10382 ft | 324 kts | 278° |
| 2026-04-22 15:03 | 47.48537 | 106.88060 | 10290 ft | 325 kts | 278° |
| 2026-04-22 15:04 | 47.48819 | 106.84747 | 10176 ft | 325 kts | 278° |
| 2026-04-22 15:04 | 47.49100 | 106.81428 | 10076 ft | 325 kts | 278° |
| 2026-04-22 15:04 | 47.49380 | 106.78121 | 9971 ft | 325 kts | 278° |
| 2026-04-22 15:04 | 47.49661 | 106.74803 | 9875 ft | 325 kts | 278° |
| 2026-04-22 15:05 | 47.49940 | 106.71484 | 9767 ft | 325 kts | 278° |
| 2026-04-22 15:05 | 47.50434 | 106.68245 | 9642 ft | 323 kts | 294° |
| 2026-04-22 15:05 | 47.51623 | 106.65428 | 9534 ft | 324 kts | 303° |
| 2026-04-22 15:05 | 47.52864 | 106.62695 | 9430 ft | 324 kts | 303° |
| 2026-04-22 15:06 | 47.53708 | 106.60815 | 9352 ft | 324 kts | 303° |
| 2026-04-22 15:06 | 47.55350 | 106.57125 | 9204 ft | 324 kts | 302° |
| 2026-04-22 15:06 | 47.56590 | 106.54330 | 9105 ft | 324 kts | 302° |
| 2026-04-22 15:06 | 47.57826 | 106.51533 | 8987 ft | 324 kts | 302° |
| 2026-04-22 15:07 | 47.59080 | 106.48749 | 8873 ft | 325 kts | 307° |
| 2026-04-22 15:07 | 47.60775 | 106.46560 | 8771 ft | 326 kts | 329° |
| 2026-04-22 15:07 | 47.62944 | 106.45514 | 8804 ft | 332 kts | 351° |
| 2026-04-22 15:07 | 47.65258 | 106.45762 | 8805 ft | 339 kts | 13° |
| 2026-04-22 15:08 | 47.67387 | 106.47298 | 8806 ft | 345 kts | 34° |
| 2026-04-22 15:08 | 47.69016 | 106.49919 | 8796 ft | 351 kts | 56° |
| 2026-04-22 15:08 | 47.69911 | 106.53253 | 8794 ft | 355 kts | 78° |
| 2026-04-22 15:08 | 47.69979 | 106.56915 | 8587 ft | 357 kts | 98° |
| 2026-04-22 15:09 | 47.69238 | 106.60370 | 8088 ft | 346 kts | 115° |
| 2026-04-22 15:09 | 47.68438 | 106.63661 | 7598 ft | 334 kts | 99° |
| 2026-04-22 15:09 | 47.68478 | 106.66997 | 7355 ft | 315 kts | 75° |
| 2026-04-22 15:09 | 47.69325 | 106.69745 | 7756 ft | 269 kts | 50° |
| 2026-04-22 15:10 | 47.70601 | 106.71377 | 8182 ft | 226 kts | 22° |
| 2026-04-22 15:10 | 47.72067 | 106.72028 | 8185 ft | 216 kts | 359° |
| 2026-04-22 15:10 | 47.73508 | 106.71680 | 8156 ft | 208 kts | 331° |
| 2026-04-22 15:10 | 47.74710 | 106.70505 | 8220 ft | 208 kts | 319° |
| 2026-04-22 15:11 | 47.75666 | 106.68952 | 8202 ft | 206 kts | 299° |
| 2026-04-22 15:11 | 47.76302 | 106.67043 | 8132 ft | 207 kts | 294° |
| 2026-04-22 15:11 | 47.76878 | 106.65073 | 7968 ft | 207 kts | 289° |
| 2026-04-22 15:11 | 47.77337 | 106.63054 | 7812 ft | 206 kts | 288° |
| 2026-04-22 15:12 | 47.77776 | 106.61022 | 7767 ft | 207 kts | 288° |
| 2026-04-22 15:12 | 47.78147 | 106.58955 | 7777 ft | 208 kts | 284° |
| 2026-04-22 15:12 | 47.78451 | 106.56852 | 7793 ft | 208 kts | 283° |
| 2026-04-22 15:12 | 47.78746 | 106.54751 | 7809 ft | 208 kts | 283° |
| 2026-04-22 15:13 | 47.79029 | 106.52640 | 7803 ft | 208 kts | 279° |
| 2026-04-22 15:13 | 47.78887 | 106.50519 | 7651 ft | 210 kts | 245° |
| 2026-04-22 15:13 | 47.77885 | 106.49004 | 7630 ft | 208 kts | 212° |
| 2026-04-22 15:13 | 47.76499 | 106.48242 | 7921 ft | 221 kts | 194° |
| 2026-04-22 15:14 | 47.74952 | 106.48244 | 7782 ft | 223 kts | 176° |
| 2026-04-22 15:14 | 47.73416 | 106.48556 | 7855 ft | 224 kts | 177° |
| 2026-04-22 15:14 | 47.71867 | 106.48848 | 7875 ft | 225 kts | 176° |
| 2026-04-22 15:14 | 47.70366 | 106.49517 | 7726 ft | 228 kts | 150° |
| 2026-04-22 15:15 | 47.69321 | 106.51196 | 7600 ft | 226 kts | 115° |
| 2026-04-22 15:15 | 47.68972 | 106.53477 | 7539 ft | 229 kts | 94° |
| 2026-04-22 15:15 | 47.68811 | 106.55843 | 7357 ft | 231 kts | 97° |
| 2026-04-22 15:15 | 47.68574 | 106.58207 | 7022 ft | 231 kts | 99° |
| 2026-04-22 15:16 | 47.68284 | 106.60517 | 6800 ft | 223 kts | 102° |
| 2026-04-22 15:16 | 47.67972 | 106.62696 | 6663 ft | 211 kts | 103° |
| 2026-04-22 15:16 | 47.67660 | 106.64737 | 6579 ft | 191 kts | 104° |
| 2026-04-22 15:16 | 47.67356 | 106.66597 | 6241 ft | 181 kts | 104° |
| 2026-04-22 15:17 | 47.67083 | 106.68308 | 5994 ft | 165 kts | 104° |
| 2026-04-22 15:17 | 47.66810 | 106.69937 | 5815 ft | 161 kts | 104° |
| 2026-04-22 15:17 | 47.66527 | 106.71550 | 5733 ft | 162 kts | 108° |
| 2026-04-22 15:17 | 47.66241 | 106.73156 | 5447 ft | 160 kts | 107° |
| 2026-04-22 15:18 | 47.65974 | 106.74729 | 5257 ft | 156 kts | 105° |
| 2026-04-22 15:18 | 47.65684 | 106.76280 | 5006 ft | 154 kts | 105° |
| 2026-04-22 15:18 | 47.65430 | 106.77818 | 4822 ft | 154 kts | 105° |
| 2026-04-22 15:18 | 47.65161 | 106.79327 | 4583 ft | 152 kts | 105° |
| 2026-04-22 15:19 | 47.64904 | 106.80806 | 4499 ft | 136 kts | 104° |
| 2026-04-22 15:19 | 47.64701 | 106.81947 | 4495 ft | 86 kts | 104° |
| 2026-04-22 15:19 | 47.64572 | 106.82673 | 4494 ft | 64 kts | 104° |
| 2026-04-22 15:19 | 47.64539 | 106.83114 | 4498 ft | 24 kts | 82° |
| 2026-04-22 15:20 | 47.64557 | 106.83238 | 4498 ft | 15 kts | 61° |
| 2026-04-22 15:20 | 47.64658 | 106.83184 | 4494 ft | 16 kts | 285° |
| 2026-04-22 15:20 | 47.64685 | 106.83032 | 4496 ft | 15 kts | 284° |
| 2026-04-22 15:20 | 47.64712 | 106.82878 | 4498 ft | 14 kts | 284° |
| 2026-04-22 15:21 | 47.64737 | 106.82737 | 4499 ft | 14 kts | 285° |
| 2026-04-22 15:21 | 47.64787 | 106.82615 | 4503 ft | 16 kts | 328° |
| 2026-04-22 15:21 | 47.64872 | 106.82491 | 4506 ft | 19 kts | 285° |
| 2026-04-22 15:21 | 47.64910 | 106.82275 | 4504 ft | 20 kts | 284° |
| 2026-04-22 15:22 | 47.64937 | 106.82125 | 4506 ft | 17 kts | 285° |
| 2026-04-22 15:22 | 47.64955 | 106.82026 | 4508 ft | 8 kts | 285° |
| 2026-04-22 15:22 | 47.64982 | 106.82006 | 4507 ft | 5 kts | 35° |
| 2026-04-22 15:22 | 47.65020 | 106.82062 | 4506 ft | 6 kts | 35° |
| 2026-04-22 15:23 | 47.65037 | 106.82080 | 4506 ft | 0 kts | 35° |
| 2026-04-22 15:23 | 47.65039 | 106.82082 | 4506 ft | 0 kts | 35° |